This is the latest recevied weather packets stored in our database for station/object N0HOT. If no packets are shown the sender has not sent any weather packets the latest 1 day(s).
| Time | Temp. | Humidity | Pressure | Rain* | Wind** | Luminosity | Snow |
|---|---|---|---|---|---|---|---|
| 1778078778 | 6.11° C | 43% | 1017.8 hPa | 0 mm | - | 151 W/m² | - |
| 1778076662 | 5.56° C | 44% | 1017.8 hPa | 0 mm | - | 171 W/m² | - |
| 1778076056 | 5.56° C | 46% | 1017.8 hPa | 0 mm | - | 152 W/m² | - |
| 1778074539 | 4.44° C | 48% | 1017.3 hPa | 0 mm | - | 220 W/m² | - |
| 1778074236 | 4.44° C | 48% | 1017.8 hPa | 0 mm | - | 276 W/m² | - |
| 1778073327 | 3.89° C | 49% | 1017.8 hPa | 0 mm | - | 220 W/m² | - |
| 1778072418 | 2.78° C | 53% | 1017.8 hPa | 0 mm | - | 55 W/m² | - |
| 1778071209 | 1.67° C | 57% | 1017.3 hPa | 0 mm | - | 38 W/m² | - |
| 1778069696 | 1.11° C | 60% | 1017.3 hPa | 0 mm | - | 28 W/m² | - |
| 1778069090 | 1.11° C | 62% | 1017.3 hPa | 0 mm | - | 25 W/m² | - |
| 1778066671 | 1.11° C | 62% | 1017 hPa | 0 mm | - | 12 W/m² | - |
| 1778065460 | 1.11° C | 61% | 1016.7 hPa | 0 mm | - | 4 W/m² | - |
| 1778064853 | 1.11° C | 61% | 1016.7 hPa | 0 mm | - | 1 W/m² | - |
| 1778064550 | 1.11° C | 61% | 1016.3 hPa | 0 mm | - | 0 W/m² | - |
| 1778064248 | 1.11° C | 61% | 1016.3 hPa | 0 mm | - | 0 W/m² | - |
| 1778063340 | 1.67° C | 61% | 1016 hPa | 0 mm | - | 0 W/m² | - |
| 1778062431 | 1.67° C | 61% | 1016 hPa | 0 mm | - | 0 W/m² | - |
| 1778061827 | 1.67° C | 61% | 1016.3 hPa | 0 mm | - | 0 W/m² | - |
| 1778061525 | 1.67° C | 60% | 1016 hPa | 0 mm | - | 0 W/m² | - |
| 1778061222 | 1.67° C | 60% | 1016 hPa | 0 mm | - | 0 W/m² | - |
| 1778060618 | 2.22° C | 59% | 1016 hPa | 0 mm | - | 0 W/m² | - |
| 1778060012 | 2.22° C | 59% | 1015.6 hPa | 0 mm | - | 0 W/m² | - |
| 1778059710 | 2.22° C | 59% | 1015.6 hPa | 0 mm | - | 0 W/m² | - |
| 1778059407 | 2.22° C | 59% | 1015.6 hPa | 0 mm | - | 0 W/m² | - |
| 1778058796 | 2.78° C | 58% | 1015.6 hPa | 0 mm | - | 0 W/m² | - |
* Rain latest hour (hover to see other rain measurements)
** Current wind speed in m/s (hover to see current wind gust speed)